Terminal Aerodrome Forecast
Issued by NWS Portland, OR

Home | Current Version | Previous Version | Text Only | Print | Product List | Glossary On
Versions: 1 2 3 4 5 6 7 8 9 10 11 12 13 14 15 16 17 18 19 20 21 22 23 24 25 26 27 28 29 30 31 32 33 34 35
000
FTUS46 KPQR 190529
TAFTTD
TAF
KTTD 190529Z 1906/2006 VRB03KT P6SM SCT035 BKN060
     FM191300 19005KT P6SM -RA SCT025 OVC040
     FM192000 22007G15KT P6SM -RA OVC050
     FM200000 21007KT P6SM -RA OVC050=

USA.gov is the U.S. government's official web portal to all federal, state and local government web resources and services.